Tuxedo, New York
Current Conditions -  °F | °C
As of 11:53 PM on Friday 19 Dec 2014 (Local Time) from KFWN Reporting Station
Broken Clouds Broken Clouds  
Wind Chill: 24°   Ceiling: 2700
Heat Index: 29°   Visibility: 10mi
Dew Point: 20°   Wind: 5mph
Humidity: 69%   Direction: NA
Pressure: 30.19"   Gusts: NA
Location:  41.1969°N, 74.224°W
Report Text: KFWN 200453Z AUTO VRB04KT 10SM BKN027 M02/M07 A3019 RMK AO2 SLP226 T10171067 400221022
Loading
Personal Weather Stations






























Interactive Weather Map New forecast layout! Learn more

10-Day Weather Forecast

Advertisements
Track Severe Weather on mobile